createdAt,value
2023-01-10T00:00:27.493Z,97.02
2023-01-10T00:02:54.126Z,97.44
2023-01-10T00:05:20.732Z,97.17
2023-01-10T00:07:47.342Z,96.95
2023-01-10T00:10:14.119Z,97.22
2023-01-10T00:12:59.088Z,96.77
2023-01-10T00:15:25.565Z,97.23
2023-01-10T00:17:52.023Z,96.86
2023-01-10T00:20:19.237Z,96.74
2023-01-10T00:22:45.824Z,96.35
2023-01-10T00:25:12.249Z,96.69
2023-01-10T00:27:39.287Z,96.58
2023-01-10T00:30:13.869Z,96.45
2023-01-10T00:32:45.165Z,96.88
2023-01-10T00:35:12.925Z,96.55
2023-01-10T00:37:40.671Z,96.54
2023-01-10T00:40:11.177Z,96.37
2023-01-10T00:42:56.344Z,96.13
2023-01-10T00:45:25.010Z,95.93
2023-01-10T00:47:52.145Z,95.58
2023-01-10T00:50:18.885Z,95.91
2023-01-10T00:52:45.307Z,96.07
2023-01-10T00:55:11.769Z,95.73
2023-01-10T00:57:38.362Z,96.00
2023-01-10T01:00:09.055Z,96.10
2023-01-10T01:02:35.912Z,96.14
2023-01-10T01:05:02.394Z,96.43
2023-01-10T01:07:28.899Z,96.54
2023-01-10T01:10:13.837Z,96.70
2023-01-10T01:12:40.293Z,96.56
2023-01-10T01:15:07.244Z,96.68
2023-01-10T01:17:33.658Z,96.99
2023-01-10T01:20:00.102Z,96.61
2023-01-10T01:22:26.535Z,96.95
2023-01-10T01:24:53.040Z,96.61
2023-01-10T01:27:20.909Z,97.28
2023-01-10T01:29:47.334Z,97.24
2023-01-10T01:32:13.867Z,97.71
2023-01-10T01:34:41.074Z,97.71
2023-01-10T01:37:07.596Z,97.99
2023-01-10T01:39:34.059Z,97.80
2023-01-10T01:42:00.564Z,98.29
2023-01-10T01:44:38.012Z,98.37
2023-01-10T01:47:16.571Z,97.75
2023-01-10T01:49:45.062Z,97.98
2023-01-10T01:52:27.400Z,98.42
2023-01-10T01:54:58.708Z,98.49
2023-01-10T01:57:28.247Z,98.52
2023-01-10T01:59:56.012Z,98.50
2023-01-10T02:02:29.041Z,98.43
2023-01-10T02:05:11.059Z,98.83
2023-01-10T02:07:40.609Z,98.87
2023-01-10T02:10:13.492Z,99.50
2023-01-10T02:12:40.379Z,99.87
2023-01-10T02:15:07.405Z,99.59
2023-01-10T02:17:33.891Z,99.61
2023-01-10T02:20:05.718Z,100.00
2023-01-10T02:22:50.956Z,100.00
2023-01-10T02:25:51.521Z,100.00
2023-01-10T02:28:24.040Z,100.00
2023-01-10T02:31:26.456Z,100.00
2023-01-10T02:34:28.671Z,100.00
2023-01-10T02:37:00.964Z,100.00
2023-01-10T02:39:37.683Z,100.00
2023-01-10T02:42:09.630Z,100.00
2023-01-10T02:44:54.824Z,100.00
2023-01-10T02:47:21.418Z,100.00
2023-01-10T02:49:50.051Z,100.00
2023-01-10T02:52:28.103Z,100.00
2023-01-10T02:55:01.536Z,100.00
2023-01-10T02:58:01.638Z,100.00
2023-01-10T03:00:56.654Z,100.00
2023-01-10T03:03:37.687Z,100.00
2023-01-10T03:06:24.249Z,100.00
2023-01-10T03:08:53.822Z,100.00
2023-01-10T03:11:39.972Z,100.00
2023-01-10T03:14:15.121Z,100.00
2023-01-10T03:16:47.427Z,100.00
2023-01-10T03:19:18.947Z,100.00
2023-01-10T03:21:49.360Z,100.00
2023-01-10T03:24:31.901Z,100.00
2023-01-10T03:27:18.849Z,100.00
2023-01-10T03:29:54.467Z,100.00
2023-01-10T03:32:25.177Z,100.00
2023-01-10T03:34:52.690Z,100.00
2023-01-10T03:37:36.032Z,100.00
2023-01-10T03:40:43.263Z,100.00
2023-01-10T03:43:55.876Z,100.00
2023-01-10T03:46:31.496Z,100.00
2023-01-10T03:48:59.649Z,100.00
2023-01-10T03:51:28.004Z,100.00
2023-01-10T03:53:54.530Z,100.00
2023-01-10T03:56:21.024Z,100.00
2023-01-10T03:58:47.790Z,100.00
2023-01-10T04:01:14.298Z,100.00
2023-01-10T04:03:40.867Z,100.00
2023-01-10T04:06:07.530Z,100.00
2023-01-10T04:08:34.015Z,100.00
2023-01-10T04:11:00.519Z,100.00
2023-01-10T04:13:26.976Z,100.00
2023-01-10T04:15:53.546Z,100.00
2023-01-10T04:18:20.136Z,100.00
2023-01-10T04:20:46.664Z,100.00
2023-01-10T04:23:13.162Z,100.00
2023-01-10T04:25:39.696Z,100.00
2023-01-10T04:28:06.213Z,100.00
2023-01-10T04:30:32.698Z,100.00
2023-01-10T04:32:59.121Z,100.00
2023-01-10T04:35:25.660Z,100.00
2023-01-10T04:37:52.083Z,100.00
2023-01-10T04:40:19.744Z,100.00
2023-01-10T04:42:46.303Z,100.00
2023-01-10T04:45:14.406Z,100.00
2023-01-10T04:47:40.938Z,100.00
2023-01-10T04:50:07.837Z,100.00
2023-01-10T04:52:34.263Z,100.00
2023-01-10T04:55:00.749Z,100.00
2023-01-10T04:57:27.241Z,100.00
2023-01-10T04:59:53.800Z,100.00
2023-01-10T05:02:20.477Z,100.00
2023-01-10T05:04:47.005Z,100.00
2023-01-10T05:07:13.594Z,100.00
2023-01-10T05:09:40.140Z,100.00
2023-01-10T05:12:06.669Z,100.00
2023-01-10T05:14:33.259Z,100.00
2023-01-10T05:16:59.677Z,100.00
2023-01-10T05:19:26.188Z,100.00
2023-01-10T05:21:53.355Z,100.00
2023-01-10T05:24:19.955Z,100.00
2023-01-10T05:26:46.378Z,100.00
2023-01-10T05:29:14.430Z,100.00
2023-01-10T05:31:41.512Z,100.00
2023-01-10T05:34:11.885Z,100.00
2023-01-10T05:36:38.639Z,100.00
2023-01-10T05:39:05.400Z,100.00
2023-01-10T05:41:31.847Z,100.00
2023-01-10T05:43:58.303Z,100.00
2023-01-10T05:46:24.830Z,100.00
2023-01-10T05:48:52.812Z,100.00
2023-01-10T05:51:19.362Z,100.00
2023-01-10T05:53:45.802Z,100.00
2023-01-10T05:56:12.302Z,100.00
2023-01-10T05:58:38.781Z,100.00
2023-01-10T06:01:05.398Z,100.00
2023-01-10T06:03:31.984Z,100.00
2023-01-10T06:05:58.502Z,100.00
2023-01-10T06:08:25.144Z,100.00
2023-01-10T06:10:51.960Z,100.00
2023-01-10T06:13:18.480Z,100.00
2023-01-10T06:15:45.072Z,100.00
2023-01-10T06:18:12.473Z,100.00
2023-01-10T06:20:40.209Z,100.00
2023-01-10T06:23:07.045Z,100.00
2023-01-10T06:25:40.596Z,100.00
2023-01-10T06:28:12.157Z,100.00
2023-01-10T06:30:41.913Z,100.00
2023-01-10T06:33:09.527Z,100.00
2023-01-10T06:35:36.455Z,100.00
2023-01-10T06:38:03.338Z,100.00
2023-01-10T06:40:29.891Z,100.00
2023-01-10T06:42:56.373Z,100.00
2023-01-10T06:45:22.886Z,100.00
2023-01-10T06:47:49.388Z,100.00
2023-01-10T06:50:16.064Z,100.00
2023-01-10T06:52:42.599Z,100.00
2023-01-10T06:55:09.811Z,100.00
2023-01-10T06:57:38.122Z,100.00
2023-01-10T07:00:06.956Z,100.00
2023-01-10T07:02:33.492Z,100.00
2023-01-10T07:04:59.931Z,100.00
2023-01-10T07:07:26.378Z,100.00
2023-01-10T07:09:53.036Z,100.00
2023-01-10T07:12:19.491Z,100.00
2023-01-10T07:14:46.041Z,100.00
2023-01-10T07:17:12.499Z,100.00
2023-01-10T07:19:38.995Z,100.00
2023-01-10T07:22:05.448Z,100.00
2023-01-10T07:24:31.940Z,100.00
2023-01-10T07:26:58.398Z,100.00
2023-01-10T07:29:24.891Z,100.00
2023-01-10T07:31:51.917Z,100.00
2023-01-10T07:34:18.543Z,100.00
2023-01-10T07:36:45.012Z,100.00
2023-01-10T07:39:11.604Z,100.00
2023-01-10T07:41:38.107Z,100.00
2023-01-10T07:44:04.913Z,100.00
2023-01-10T07:46:31.534Z,100.00
2023-01-10T07:48:58.110Z,100.00
2023-01-10T07:51:24.562Z,100.00
2023-01-10T07:53:51.375Z,100.00
2023-01-10T07:56:17.906Z,100.00
2023-01-10T07:58:46.252Z,100.00
2023-01-10T08:01:12.754Z,100.00
2023-01-10T08:03:39.507Z,100.00
2023-01-10T08:06:08.187Z,100.00
2023-01-10T08:08:34.963Z,100.00
2023-01-10T08:11:04.778Z,100.00
2023-01-10T08:13:32.840Z,100.00
2023-01-10T08:15:59.417Z,100.00
2023-01-10T08:18:26.256Z,100.00
2023-01-10T08:20:54.271Z,100.00
2023-01-10T08:23:21.383Z,100.00
2023-01-10T08:25:48.400Z,100.00
2023-01-10T08:28:15.120Z,100.00
2023-01-10T08:30:41.894Z,100.00
2023-01-10T08:33:10.203Z,100.00
2023-01-10T08:35:38.847Z,100.00
2023-01-10T08:38:05.522Z,100.00
2023-01-10T08:40:32.310Z,100.00
2023-01-10T08:43:04.595Z,100.00
2023-01-10T08:45:31.494Z,100.00
2023-01-10T08:47:58.149Z,100.00
2023-01-10T08:50:25.595Z,100.00
2023-01-10T08:52:52.085Z,100.00
2023-01-10T08:55:19.361Z,100.00
2023-01-10T08:57:46.011Z,99.86
2023-01-10T09:00:13.228Z,99.83
2023-01-10T09:02:40.737Z,100.00
2023-01-10T09:05:15.041Z,99.54
2023-01-10T09:07:48.783Z,99.48
2023-01-10T09:10:15.415Z,99.69
2023-01-10T09:12:57.200Z,99.32
2023-01-10T09:15:29.396Z,99.09
2023-01-10T09:18:00.837Z,99.29
2023-01-10T09:20:29.172Z,99.17
2023-01-10T09:22:56.975Z,98.75
2023-01-10T09:25:24.836Z,98.35
2023-01-10T09:28:01.306Z,98.68
2023-01-10T09:30:28.938Z,98.04
2023-01-10T09:32:56.920Z,98.38
2023-01-10T09:35:24.903Z,98.51
2023-01-10T09:37:55.364Z,98.13
2023-01-10T09:40:41.173Z,98.31
2023-01-10T09:43:18.156Z,97.80
2023-01-10T09:45:51.947Z,98.02
2023-01-10T09:48:37.909Z,97.78
2023-01-10T09:51:29.300Z,97.81
2023-01-10T09:54:10.778Z,98.01
2023-01-10T09:56:39.149Z,97.80
2023-01-10T09:59:06.349Z,98.16
2023-01-10T10:01:37.492Z,97.42
2023-01-10T10:04:35.064Z,97.27
2023-01-10T10:07:04.178Z,97.33
2023-01-10T10:09:35.230Z,96.70
2023-01-10T10:12:21.342Z,96.73
2023-01-10T10:14:54.691Z,96.33
2023-01-10T10:17:29.641Z,96.02
2023-01-10T10:20:17.037Z,95.82
2023-01-10T10:23:18.464Z,95.79
2023-01-10T10:26:09.793Z,95.72
2023-01-10T10:28:54.845Z,95.72
2023-01-10T10:31:37.654Z,95.79
2023-01-10T10:34:16.364Z,95.73
2023-01-10T10:36:58.880Z,95.55
2023-01-10T10:39:31.533Z,95.36
2023-01-10T10:41:58.751Z,95.36
2023-01-10T10:44:37.119Z,95.05
2023-01-10T10:47:13.512Z,94.86
2023-01-10T10:50:15.145Z,94.57
2023-01-10T10:52:44.312Z,94.84
2023-01-10T10:55:19.557Z,94.58
2023-01-10T10:57:59.289Z,94.56
2023-01-10T11:00:27.545Z,94.59
2023-01-10T11:03:07.363Z,94.61
2023-01-10T11:05:46.114Z,94.48
2023-01-10T11:08:16.951Z,94.57
2023-01-10T11:10:48.131Z,94.49
2023-01-10T11:13:32.958Z,94.43
2023-01-10T11:16:01.443Z,94.20
2023-01-10T11:18:29.542Z,94.08
2023-01-10T11:21:04.611Z,93.82
2023-01-10T11:23:39.941Z,94.23
2023-01-10T11:26:34.595Z,94.20
2023-01-10T11:29:16.940Z,93.95
2023-01-10T11:31:45.212Z,93.78
2023-01-10T11:34:29.764Z,93.85
2023-01-10T11:37:18.704Z,93.81
2023-01-10T11:39:45.150Z,93.59
2023-01-10T11:42:30.345Z,93.44
2023-01-10T11:45:19.410Z,93.64
2023-01-10T11:47:55.901Z,93.56
2023-01-10T11:50:28.280Z,93.60
2023-01-10T11:52:56.201Z,93.38
2023-01-10T11:55:31.857Z,93.29
2023-01-10T11:58:04.461Z,93.13
2023-01-10T12:00:40.750Z,93.11
2023-01-10T12:03:42.928Z,93.41
2023-01-10T12:06:15.817Z,93.21
2023-01-10T12:08:42.585Z,93.58
2023-01-10T12:11:17.997Z,93.63
2023-01-10T12:13:52.606Z,93.46
2023-01-10T12:16:24.160Z,93.50
2023-01-10T12:18:52.901Z,93.77
2023-01-10T12:21:41.245Z,93.72
2023-01-10T12:24:18.588Z,93.46
2023-01-10T12:26:47.301Z,93.30
2023-01-10T12:29:24.459Z,93.37
2023-01-10T12:31:53.968Z,93.53
2023-01-10T12:34:25.170Z,93.68
2023-01-10T12:37:20.269Z,93.46
2023-01-10T12:39:59.379Z,93.37
2023-01-10T12:42:48.689Z,93.84
2023-01-10T12:45:24.642Z,93.76
2023-01-10T12:48:00.125Z,93.50
2023-01-10T12:50:32.644Z,93.71
2023-01-10T12:53:30.220Z,93.54
2023-01-10T12:56:00.377Z,93.51
2023-01-10T12:58:44.022Z,93.09
2023-01-10T13:01:45.926Z,93.13
2023-01-10T13:04:18.345Z,92.81
2023-01-10T13:06:45.645Z,93.02
2023-01-10T13:09:22.657Z,92.40
2023-01-10T13:12:02.480Z,92.17
2023-01-10T13:14:33.973Z,92.27
2023-01-10T13:17:29.614Z,92.29
2023-01-10T13:20:19.296Z,92.33
2023-01-10T13:22:54.079Z,92.42
2023-01-10T13:25:22.495Z,92.51
2023-01-10T13:27:57.294Z,92.57
2023-01-10T13:30:32.186Z,92.23
2023-01-10T13:33:05.954Z,92.15
2023-01-10T13:35:43.970Z,92.03
2023-01-10T13:38:39.337Z,92.03
2023-01-10T13:41:08.211Z,92.06
2023-01-10T13:44:00.949Z,92.27
2023-01-10T13:46:30.506Z,92.11
2023-01-10T13:49:00.146Z,91.52
2023-01-10T13:51:27.769Z,91.45
2023-01-10T13:54:19.221Z,91.46
2023-01-10T13:56:45.840Z,91.27
2023-01-10T13:59:46.176Z,90.99
2023-01-10T14:02:29.603Z,91.23
2023-01-10T14:05:00.712Z,91.05
2023-01-10T14:07:29.273Z,90.82
2023-01-10T14:10:21.102Z,91.17
2023-01-10T14:13:09.067Z,90.93
2023-01-10T14:15:41.382Z,90.87
2023-01-10T14:18:22.505Z,90.87
2023-01-10T14:21:07.530Z,91.04
2023-01-10T14:23:51.632Z,91.64
2023-01-10T14:26:40.372Z,92.76
2023-01-10T14:29:12.688Z,93.38
2023-01-10T14:31:47.036Z,93.73
2023-01-10T14:34:25.969Z,94.67
2023-01-10T14:37:03.456Z,95.08
2023-01-10T14:39:30.787Z,95.65
2023-01-10T14:42:07.947Z,96.21
2023-01-10T14:44:46.535Z,96.21
2023-01-10T14:47:34.335Z,96.57
2023-01-10T14:50:02.315Z,96.89
2023-01-10T14:52:29.387Z,97.56
2023-01-10T14:55:04.262Z,97.78
2023-01-10T14:57:30.785Z,98.08
2023-01-10T15:00:34.559Z,98.34
2023-01-10T15:03:03.895Z,98.46
2023-01-10T15:05:33.980Z,98.80
2023-01-10T15:08:24.033Z,99.12
2023-01-10T15:11:05.733Z,99.53
2023-01-10T15:13:37.514Z,99.31
2023-01-10T15:16:05.575Z,99.68
2023-01-10T15:18:45.485Z,99.85
2023-01-10T15:21:14.300Z,100.00
2023-01-10T15:23:43.490Z,100.00
2023-01-10T15:26:26.865Z,100.00
2023-01-10T15:29:12.554Z,100.00
2023-01-10T15:31:41.215Z,100.00
2023-01-10T15:34:26.591Z,100.00
2023-01-10T15:36:56.017Z,100.00
2023-01-10T15:39:26.393Z,100.00
2023-01-10T15:42:03.669Z,100.00
2023-01-10T15:44:45.067Z,100.00
2023-01-10T15:47:33.086Z,100.00
2023-01-10T15:49:59.638Z,100.00
2023-01-10T15:52:26.133Z,100.00
2023-01-10T15:54:52.914Z,100.00
2023-01-10T15:57:25.643Z,100.00
2023-01-10T15:59:52.497Z,100.00
2023-01-10T16:02:30.693Z,100.00
2023-01-10T16:05:06.597Z,100.00
2023-01-10T16:07:35.886Z,100.00
2023-01-10T16:10:22.859Z,100.00
2023-01-10T16:13:07.915Z,100.00
2023-01-10T16:15:36.633Z,100.00
2023-01-10T16:18:03.088Z,100.00
2023-01-10T16:20:32.096Z,100.00
2023-01-10T16:22:59.951Z,100.00
2023-01-10T16:25:38.915Z,100.00
2023-01-10T16:28:06.132Z,100.00
2023-01-10T16:30:34.636Z,100.00
2023-01-10T16:33:12.541Z,100.00
2023-01-10T16:35:39.560Z,100.00
2023-01-10T16:38:06.002Z,100.00
2023-01-10T16:40:41.693Z,100.00
2023-01-10T16:43:21.520Z,100.00
2023-01-10T16:45:51.143Z,100.00
2023-01-10T16:48:19.523Z,100.00
2023-01-10T16:50:47.330Z,100.00
2023-01-10T16:53:16.257Z,100.00
2023-01-10T16:55:52.877Z,100.00
2023-01-10T16:58:20.628Z,100.00
2023-01-10T17:00:51.097Z,100.00
2023-01-10T17:03:22.013Z,100.00
2023-01-10T17:05:49.044Z,100.00
2023-01-10T17:08:21.124Z,100.00
2023-01-10T17:10:52.577Z,100.00
2023-01-10T17:13:32.374Z,100.00
2023-01-10T17:15:58.964Z,100.00
2023-01-10T17:18:28.526Z,100.00
2023-01-10T17:20:57.196Z,100.00
2023-01-10T17:23:25.163Z,100.00
2023-01-10T17:25:59.152Z,100.00
2023-01-10T17:28:25.751Z,100.00
2023-01-10T17:30:52.447Z,100.00
2023-01-10T17:33:18.884Z,100.00
2023-01-10T17:35:45.355Z,100.00
2023-01-10T17:38:14.276Z,100.00
2023-01-10T17:40:46.045Z,100.00
2023-01-10T17:43:13.685Z,100.00
2023-01-10T17:45:41.027Z,100.00
2023-01-10T17:48:08.241Z,100.00
2023-01-10T17:50:36.038Z,100.00
2023-01-10T17:53:02.507Z,100.00
2023-01-10T17:55:28.942Z,100.00
2023-01-10T17:57:55.444Z,100.00
2023-01-10T18:00:21.951Z,100.00
2023-01-10T18:02:48.754Z,100.00
2023-01-10T18:05:15.493Z,100.00
2023-01-10T18:07:41.926Z,100.00
2023-01-10T18:10:09.130Z,100.00
2023-01-10T18:12:36.781Z,100.00
2023-01-10T18:15:04.600Z,100.00
2023-01-10T18:17:31.074Z,100.00
2023-01-10T18:19:57.469Z,100.00
2023-01-10T18:22:42.296Z,100.00
2023-01-10T18:25:08.892Z,100.00
2023-01-10T18:27:36.167Z,100.00
2023-01-10T18:30:02.855Z,100.00
2023-01-10T18:32:29.371Z,100.00
2023-01-10T18:34:55.826Z,100.00
2023-01-10T18:37:22.260Z,100.00
2023-01-10T18:39:49.530Z,100.00
2023-01-10T18:42:16.355Z,100.00
2023-01-10T18:44:42.859Z,100.00
2023-01-10T18:47:09.370Z,100.00
2023-01-10T18:49:35.806Z,100.00
2023-01-10T18:52:02.251Z,100.00
2023-01-10T18:54:28.659Z,100.00
2023-01-10T18:56:55.992Z,100.00
2023-01-10T18:59:23.100Z,100.00
2023-01-10T19:01:49.750Z,100.00
2023-01-10T19:04:17.442Z,100.00
2023-01-10T19:06:44.269Z,100.00
2023-01-10T19:09:11.020Z,100.00
2023-01-10T19:11:37.459Z,100.00
2023-01-10T19:14:04.235Z,100.00
2023-01-10T19:16:34.175Z,100.00
2023-01-10T19:19:09.018Z,100.00
2023-01-10T19:21:38.940Z,100.00
2023-01-10T19:24:08.023Z,100.00
2023-01-10T19:26:34.897Z,100.00
2023-01-10T19:29:04.237Z,100.00
2023-01-10T19:31:30.750Z,100.00
2023-01-10T19:34:01.439Z,100.00
2023-01-10T19:36:28.799Z,100.00
2023-01-10T19:38:57.091Z,100.00
2023-01-10T19:41:28.610Z,100.00
2023-01-10T19:43:59.505Z,100.00
2023-01-10T19:46:27.218Z,100.00
2023-01-10T19:48:56.676Z,100.00
2023-01-10T19:51:23.488Z,100.00
2023-01-10T19:53:49.980Z,100.00
2023-01-10T19:56:21.719Z,100.00
2023-01-10T19:58:49.141Z,100.00
2023-01-10T20:01:19.517Z,100.00
2023-01-10T20:03:47.727Z,100.00
2023-01-10T20:06:17.271Z,100.00
2023-01-10T20:08:44.948Z,100.00
2023-01-10T20:11:11.603Z,100.00
2023-01-10T20:13:44.430Z,100.00
2023-01-10T20:16:16.975Z,100.00
2023-01-10T20:18:43.968Z,100.00
2023-01-10T20:21:13.070Z,100.00
2023-01-10T20:23:41.089Z,100.00
2023-01-10T20:26:27.859Z,100.00
2023-01-10T20:28:56.127Z,100.00
2023-01-10T20:31:23.933Z,100.00
2023-01-10T20:33:51.049Z,100.00
2023-01-10T20:36:19.354Z,100.00
2023-01-10T20:38:46.030Z,100.00
2023-01-10T20:41:24.106Z,100.00
2023-01-10T20:43:51.115Z,100.00
2023-01-10T20:46:20.482Z,100.00
2023-01-10T20:48:48.924Z,100.00
2023-01-10T20:51:19.445Z,100.00
2023-01-10T20:53:46.646Z,100.00
2023-01-10T20:56:16.244Z,100.00
2023-01-10T20:58:43.035Z,100.00
2023-01-10T21:01:10.479Z,100.00
2023-01-10T21:03:37.249Z,100.00
2023-01-10T21:06:04.203Z,100.00
2023-01-10T21:08:30.703Z,100.00
2023-01-10T21:10:57.827Z,100.00
2023-01-10T21:13:24.997Z,100.00
2023-01-10T21:15:55.683Z,100.00
2023-01-10T21:18:26.853Z,100.00
2023-01-10T21:20:55.575Z,100.00
2023-01-10T21:23:24.323Z,100.00
2023-01-10T21:25:51.484Z,100.00
2023-01-10T21:28:18.457Z,100.00
2023-01-10T21:30:45.868Z,100.00
2023-01-10T21:33:13.133Z,100.00
2023-01-10T21:35:39.670Z,100.00
2023-01-10T21:38:06.108Z,100.00
2023-01-10T21:40:34.254Z,100.00
2023-01-10T21:43:00.683Z,100.00
2023-01-10T21:45:28.434Z,100.00
2023-01-10T21:47:55.436Z,100.00
2023-01-10T21:50:22.634Z,100.00
2023-01-10T21:52:49.185Z,100.00
2023-01-10T21:55:16.577Z,100.00
2023-01-10T21:57:43.055Z,100.00
2023-01-10T22:00:10.256Z,100.00
2023-01-10T22:02:36.841Z,100.00
2023-01-10T22:05:03.383Z,100.00
2023-01-10T22:07:29.841Z,100.00
2023-01-10T22:09:56.258Z,100.00
2023-01-10T22:12:24.421Z,100.00
2023-01-10T22:14:51.131Z,100.00
2023-01-10T22:17:17.858Z,100.00
2023-01-10T22:19:44.309Z,100.00
2023-01-10T22:22:13.820Z,100.00
2023-01-10T22:24:43.030Z,100.00
2023-01-10T22:27:10.675Z,100.00
2023-01-10T22:29:37.061Z,100.00
2023-01-10T22:32:03.690Z,100.00
2023-01-10T22:34:30.109Z,100.00
2023-01-10T22:36:56.521Z,100.00
2023-01-10T22:39:23.036Z,100.00
2023-01-10T22:41:49.476Z,100.00
2023-01-10T22:44:26.643Z,100.00
2023-01-10T22:46:54.907Z,100.00
2023-01-10T22:49:21.928Z,100.00
2023-01-10T22:51:48.369Z,100.00
2023-01-10T22:54:17.917Z,100.00
2023-01-10T22:56:46.310Z,100.00
2023-01-10T22:59:13.342Z,100.00
2023-01-10T23:01:39.971Z,100.00
2023-01-10T23:04:06.981Z,100.00
2023-01-10T23:06:33.468Z,100.00
2023-01-10T23:09:00.011Z,100.00
2023-01-10T23:11:26.517Z,100.00
2023-01-10T23:13:52.976Z,100.00
2023-01-10T23:16:28.256Z,100.00
2023-01-10T23:18:56.813Z,100.00
2023-01-10T23:21:23.431Z,100.00
2023-01-10T23:23:50.165Z,100.00
2023-01-10T23:26:16.584Z,100.00
2023-01-10T23:28:46.829Z,100.00
2023-01-10T23:31:19.267Z,100.00
2023-01-10T23:33:45.767Z,100.00
2023-01-10T23:36:12.639Z,100.00
2023-01-10T23:38:39.089Z,100.00
2023-01-10T23:41:06.072Z,100.00
2023-01-10T23:43:32.736Z,100.00
2023-01-10T23:45:59.557Z,100.00
2023-01-10T23:48:26.104Z,100.00
2023-01-10T23:50:52.637Z,100.00
2023-01-10T23:53:19.432Z,100.00
2023-01-10T23:55:46.595Z,100.00
2023-01-10T23:58:13.640Z,100.00
